createdAt,value
2018-11-07T00:01:52.536Z,65.22
2018-11-07T00:04:21.025Z,65.35
2018-11-07T00:06:49.490Z,65.12
2018-11-07T00:09:18.892Z,65.40
2018-11-07T00:11:47.331Z,65.66
2018-11-07T00:14:15.753Z,65.30
2018-11-07T00:16:44.211Z,65.32
2018-11-07T00:19:12.679Z,65.44
2018-11-07T00:21:41.185Z,65.33
2018-11-07T00:24:09.565Z,64.96
2018-11-07T00:26:38.066Z,65.20
2018-11-07T00:29:06.540Z,65.09
2018-11-07T00:31:35.112Z,65.20
2018-11-07T00:34:03.675Z,64.97
2018-11-07T00:36:32.198Z,65.07
2018-11-07T00:39:00.877Z,65.24
2018-11-07T00:41:29.345Z,65.00
2018-11-07T00:43:57.822Z,65.45
2018-11-07T00:46:26.295Z,65.17
2018-11-07T00:48:54.728Z,65.27
2018-11-07T00:51:23.349Z,65.08
2018-11-07T00:53:51.894Z,65.25
2018-11-07T00:56:20.331Z,65.01
2018-11-07T00:58:48.844Z,65.35
2018-11-07T01:01:17.420Z,64.95
2018-11-07T01:03:46.444Z,64.86
2018-11-07T01:06:14.955Z,65.19
2018-11-07T01:08:43.417Z,65.15
2018-11-07T01:11:12.332Z,65.41
2018-11-07T01:13:40.779Z,65.26
2018-11-07T01:16:15.795Z,65.19
2018-11-07T01:18:44.284Z,65.37
2018-11-07T01:21:12.738Z,65.52
2018-11-07T01:23:41.217Z,65.44
2018-11-07T01:26:09.677Z,65.36
2018-11-07T01:28:38.157Z,65.31
2018-11-07T01:31:06.790Z,65.13
2018-11-07T01:33:35.459Z,65.25
2018-11-07T01:36:03.993Z,65.23
2018-11-07T01:38:32.489Z,65.30
2018-11-07T01:41:00.978Z,65.32
2018-11-07T01:43:29.499Z,65.07
2018-11-07T01:45:57.906Z,65.16
2018-11-07T01:48:26.638Z,65.50
2018-11-07T01:50:55.077Z,65.09
2018-11-07T01:53:23.528Z,65.40
2018-11-07T01:55:52.194Z,65.04
2018-11-07T01:58:20.639Z,65.50
2018-11-07T02:00:49.202Z,65.65
2018-11-07T02:03:18.111Z,65.57
2018-11-07T02:05:47.151Z,65.58
2018-11-07T02:08:15.607Z,65.59
2018-11-07T02:10:44.018Z,65.63
2018-11-07T02:13:12.424Z,65.69
2018-11-07T02:15:40.881Z,65.25
2018-11-07T02:18:09.407Z,65.59
2018-11-07T02:20:37.863Z,65.73
2018-11-07T02:23:06.475Z,65.62
2018-11-07T02:25:34.982Z,65.45
2018-11-07T02:28:03.440Z,65.59
2018-11-07T02:30:31.844Z,65.31
2018-11-07T02:33:00.273Z,65.67
2018-11-07T02:35:30.398Z,65.71
2018-11-07T02:37:58.811Z,65.65
2018-11-07T02:40:27.288Z,65.46
2018-11-07T02:42:55.680Z,65.53
2018-11-07T02:45:24.231Z,65.41
2018-11-07T02:47:52.696Z,65.00
2018-11-07T02:50:21.184Z,65.50
2018-11-07T02:52:49.646Z,65.54
2018-11-07T02:55:18.797Z,65.39
2018-11-07T02:57:47.405Z,65.83
2018-11-07T03:00:15.909Z,65.31
2018-11-07T03:02:44.357Z,65.44
2018-11-07T03:05:12.739Z,65.37
2018-11-07T03:07:41.431Z,65.58
2018-11-07T03:10:11.337Z,65.67
2018-11-07T03:12:40.862Z,65.52
2018-11-07T03:15:10.067Z,65.70
2018-11-07T03:17:38.499Z,65.61
2018-11-07T03:20:09.973Z,65.60
2018-11-07T03:22:38.478Z,66.25
2018-11-07T03:25:06.931Z,65.68
2018-11-07T03:27:35.341Z,65.42
2018-11-07T03:30:04.638Z,65.51
2018-11-07T03:32:33.022Z,65.27
2018-11-07T03:35:01.464Z,65.49
2018-11-07T03:37:29.897Z,65.36
2018-11-07T03:39:58.484Z,65.73
2018-11-07T03:42:26.809Z,65.30
2018-11-07T03:44:55.171Z,65.67
2018-11-07T03:47:23.608Z,65.46
2018-11-07T03:49:52.059Z,65.61
2018-11-07T03:52:20.446Z,65.53
2018-11-07T03:54:48.845Z,65.97
2018-11-07T03:57:17.340Z,65.48
2018-11-07T03:59:45.753Z,65.81
2018-11-07T04:02:14.453Z,65.32
2018-11-07T04:10:54.735Z,65.51
2018-11-07T04:13:30.822Z,65.60
2018-11-07T04:15:59.277Z,66.05
2018-11-07T04:18:27.715Z,65.70
2018-11-07T04:20:56.146Z,65.67
2018-11-07T04:23:24.506Z,65.99
2018-11-07T04:25:52.892Z,65.63
2018-11-07T04:28:21.270Z,65.44
2018-11-07T04:30:49.825Z,65.74
2018-11-07T04:33:18.285Z,65.65
2018-11-07T04:35:47.165Z,65.55
2018-11-07T04:38:15.566Z,65.68
2018-11-07T04:40:44.732Z,65.30
2018-11-07T04:43:13.136Z,65.59
2018-11-07T04:45:41.618Z,65.63
2018-11-07T04:48:10.342Z,65.77
2018-11-07T04:50:38.812Z,65.39
2018-11-07T04:53:07.181Z,65.48
2018-11-07T04:55:35.664Z,65.37
2018-11-07T04:58:04.106Z,65.71
2018-11-07T05:00:32.602Z,65.44
2018-11-07T05:03:01.066Z,65.89
2018-11-07T05:05:29.525Z,65.44
2018-11-07T05:07:57.985Z,65.65
2018-11-07T05:10:26.381Z,65.66
2018-11-07T05:12:54.801Z,65.55
2018-11-07T05:15:23.248Z,65.31
2018-11-07T05:17:51.763Z,65.60
2018-11-07T05:20:20.234Z,65.61
2018-11-07T05:22:48.601Z,65.62
2018-11-07T05:25:17.012Z,65.73
2018-11-07T05:27:45.394Z,65.58
2018-11-07T05:30:13.992Z,65.84
2018-11-07T05:32:43.183Z,65.60
2018-11-07T05:35:11.617Z,65.92
2018-11-07T05:37:40.107Z,65.78
2018-11-07T05:40:08.617Z,65.73
2018-11-07T05:42:37.006Z,65.70
2018-11-07T05:45:05.897Z,65.68
2018-11-07T05:47:34.536Z,65.69
2018-11-07T05:50:03.241Z,65.87
2018-11-07T05:52:31.646Z,65.66
2018-11-07T05:55:00.048Z,65.75
2018-11-07T05:57:28.865Z,65.60
2018-11-07T05:59:57.239Z,65.48
2018-11-07T06:02:25.958Z,65.63
2018-11-07T06:04:54.368Z,65.70
2018-11-07T06:07:22.828Z,65.89
2018-11-07T06:09:51.218Z,65.66
2018-11-07T06:12:19.658Z,65.93
2018-11-07T06:14:48.102Z,65.57
2018-11-07T06:17:16.543Z,65.60
2018-11-07T06:19:44.941Z,65.36
2018-11-07T06:22:13.364Z,65.48
2018-11-07T06:24:44.939Z,65.56
2018-11-07T06:27:13.470Z,65.50
2018-11-07T06:29:41.879Z,65.55
2018-11-07T06:32:10.335Z,65.76
2018-11-07T06:34:38.730Z,65.52
2018-11-07T06:37:07.219Z,65.76
2018-11-07T06:39:35.614Z,65.61
2018-11-07T06:42:04.360Z,65.70
2018-11-07T06:44:32.852Z,65.52
2018-11-07T06:47:01.328Z,65.84
2018-11-07T06:49:29.723Z,65.70
2018-11-07T06:51:58.132Z,65.84
2018-11-07T06:54:26.489Z,65.61
2018-11-07T06:56:54.908Z,65.63
2018-11-07T06:59:23.384Z,65.36
2018-11-07T07:01:51.788Z,65.60
2018-11-07T07:04:20.591Z,65.85
2018-11-07T07:06:48.930Z,65.79
2018-11-07T07:09:17.405Z,65.57
2018-11-07T07:11:45.812Z,65.56
2018-11-07T07:14:14.326Z,65.48
2018-11-07T07:16:43.432Z,65.32
2018-11-07T07:19:12.245Z,65.27
2018-11-07T07:21:40.645Z,65.13
2018-11-07T07:24:09.065Z,64.89
2018-11-07T07:26:37.461Z,64.67
2018-11-07T07:29:05.940Z,64.29
2018-11-07T07:31:34.359Z,63.99
2018-11-07T07:34:02.778Z,64.20
2018-11-07T07:36:31.155Z,63.64
2018-11-07T07:38:59.593Z,63.19
2018-11-07T07:41:28.370Z,63.33
2018-11-07T07:43:56.762Z,62.95
2018-11-07T07:46:25.152Z,62.12
2018-11-07T07:48:53.592Z,62.03
2018-11-07T07:51:21.963Z,62.01
2018-11-07T07:53:50.411Z,62.02
2018-11-07T07:56:18.852Z,61.66
2018-11-07T07:58:47.241Z,61.26
2018-11-07T08:01:15.970Z,61.04
2018-11-07T08:03:44.403Z,60.13
2018-11-07T08:06:12.792Z,60.05
2018-11-07T08:08:41.234Z,59.73
2018-11-07T08:11:09.666Z,59.51
2018-11-07T08:13:38.166Z,59.52
2018-11-07T08:16:06.692Z,59.54
2018-11-07T08:18:35.118Z,58.82
2018-11-07T08:21:03.786Z,58.91
2018-11-07T08:23:32.204Z,58.42
2018-11-07T08:26:00.800Z,58.31
2018-11-07T08:28:29.250Z,57.86
2018-11-07T08:30:57.799Z,58.08
2018-11-07T08:33:26.132Z,57.89
2018-11-07T08:35:55.094Z,57.54
2018-11-07T08:38:23.994Z,56.68
2018-11-07T08:40:52.380Z,56.86
2018-11-07T08:43:20.760Z,56.21
2018-11-07T08:45:49.326Z,56.16
2018-11-07T08:48:17.889Z,56.12
2018-11-07T08:50:47.244Z,56.16
2018-11-07T08:53:15.657Z,55.67
2018-11-07T08:55:44.090Z,55.60
2018-11-07T08:58:12.507Z,55.75
2018-11-07T09:00:40.953Z,54.71
2018-11-07T09:03:09.426Z,55.18
2018-11-07T09:05:37.862Z,54.89
2018-11-07T09:08:06.301Z,54.46
2018-11-07T09:10:34.704Z,53.86
2018-11-07T09:13:03.200Z,54.08
2018-11-07T09:15:31.692Z,53.37
2018-11-07T09:18:00.168Z,53.73
2018-11-07T09:20:28.996Z,53.12
2018-11-07T09:22:57.390Z,52.54
2018-11-07T09:25:25.828Z,52.09
2018-11-07T09:27:54.212Z,52.42
2018-11-07T09:30:23.347Z,52.00
2018-11-07T09:32:51.829Z,51.31
2018-11-07T09:35:20.810Z,50.96
2018-11-07T09:37:49.271Z,51.51
2018-11-07T09:40:19.119Z,50.70
2018-11-07T09:42:48.853Z,51.09
2018-11-07T09:45:19.574Z,50.28
2018-11-07T09:47:48.343Z,50.59
2018-11-07T09:50:17.640Z,50.71
2018-11-07T09:52:46.630Z,50.56
2018-11-07T09:55:16.339Z,50.67
2018-11-07T09:57:44.928Z,51.12
2018-11-07T10:00:15.778Z,50.86
2018-11-07T10:02:45.449Z,49.80
2018-11-07T10:05:14.793Z,49.38
2018-11-07T10:07:43.224Z,49.96
2018-11-07T10:10:14.382Z,49.58
2018-11-07T10:12:43.211Z,48.90
2018-11-07T10:15:12.292Z,49.03
2018-11-07T10:17:40.886Z,48.24
2018-11-07T10:20:17.420Z,47.82
2018-11-07T10:22:47.136Z,46.88
2018-11-07T10:25:15.730Z,47.04
2018-11-07T10:27:44.566Z,46.67
2018-11-07T10:30:14.706Z,46.18
2018-11-07T10:32:44.403Z,46.28
2018-11-07T10:35:13.405Z,45.43
2018-11-07T10:37:42.107Z,45.88
2018-11-07T10:40:15.242Z,45.35
2018-11-07T10:42:44.112Z,45.05
2018-11-07T10:45:12.809Z,44.86
2018-11-07T10:47:42.328Z,44.64
2018-11-07T10:50:12.127Z,44.04
2018-11-07T10:52:41.604Z,44.28
2018-11-07T10:55:10.838Z,44.31
2018-11-07T10:57:39.402Z,43.50
2018-11-07T11:00:16.763Z,44.39
2018-11-07T11:02:46.834Z,43.64
2018-11-07T11:05:17.253Z,43.98
2018-11-07T11:07:45.723Z,43.64
2018-11-07T11:10:14.276Z,43.14
2018-11-07T11:12:43.966Z,42.65
2018-11-07T11:15:12.432Z,42.51
2018-11-07T11:17:40.992Z,42.12
2018-11-07T11:20:11.672Z,42.30
2018-11-07T11:22:40.202Z,42.19
2018-11-07T11:25:08.683Z,41.25
2018-11-07T11:27:37.400Z,40.88
2018-11-07T11:30:06.916Z,41.08
2018-11-07T11:32:35.327Z,40.72
2018-11-07T11:35:04.098Z,40.35
2018-11-07T11:37:32.757Z,40.18
2018-11-07T11:40:01.333Z,39.58
2018-11-07T11:42:29.744Z,39.33
2018-11-07T11:44:58.319Z,39.09
2018-11-07T11:47:26.712Z,38.61
2018-11-07T11:49:55.094Z,38.82
2018-11-07T11:52:23.766Z,37.99
2018-11-07T11:54:52.272Z,38.12
2018-11-07T11:57:21.032Z,37.75
2018-11-07T11:59:49.749Z,37.50
2018-11-07T12:02:18.043Z,37.81
2018-11-07T12:04:47.616Z,37.19
2018-11-07T12:07:16.041Z,37.67
2018-11-07T12:09:44.457Z,37.71
2018-11-07T12:12:13.111Z,37.64
2018-11-07T12:14:41.485Z,37.90
2018-11-07T12:17:09.976Z,38.15
2018-11-07T12:19:38.485Z,37.60
2018-11-07T12:22:06.867Z,38.21
2018-11-07T12:24:35.325Z,38.22
2018-11-07T12:27:03.734Z,37.75
2018-11-07T12:29:32.154Z,38.05
2018-11-07T12:32:00.852Z,37.54
2018-11-07T12:34:35.932Z,37.11
2018-11-07T12:37:04.635Z,38.01
2018-11-07T12:39:33.051Z,37.38
2018-11-07T12:42:01.480Z,37.87
2018-11-07T12:44:29.924Z,37.71
2018-11-07T12:46:58.333Z,37.93
2018-11-07T12:49:26.719Z,37.76
2018-11-07T12:51:55.052Z,37.30
2018-11-07T12:54:23.476Z,37.08
2018-11-07T12:56:51.822Z,36.88
2018-11-07T12:59:20.195Z,37.33
2018-11-07T13:01:48.622Z,36.57
2018-11-07T13:04:17.085Z,37.00
2018-11-07T13:06:45.506Z,37.03
2018-11-07T13:09:13.936Z,36.92
2018-11-07T13:11:42.337Z,36.84
2018-11-07T13:14:17.562Z,36.67
2018-11-07T13:16:46.102Z,36.52
2018-11-07T13:19:14.426Z,36.04
2018-11-07T13:21:42.889Z,35.96
2018-11-07T13:24:11.666Z,36.05
2018-11-07T13:26:40.114Z,35.99
2018-11-07T13:29:08.560Z,36.19
2018-11-07T13:31:37.052Z,36.29
2018-11-07T13:34:05.836Z,37.24
2018-11-07T13:36:34.665Z,37.40
2018-11-07T13:39:05.904Z,36.89
2018-11-07T13:41:33.849Z,37.48
2018-11-07T13:44:02.287Z,36.62
2018-11-07T13:46:37.424Z,36.62
2018-11-07T13:49:06.089Z,36.96
2018-11-07T13:51:34.878Z,37.59
2018-11-07T13:54:03.308Z,37.19
2018-11-07T13:56:35.459Z,37.79
2018-11-07T13:59:05.068Z,38.21
2018-11-07T14:01:33.616Z,38.41
2018-11-07T14:04:02.172Z,38.59
2018-11-07T14:06:30.968Z,38.08
2018-11-07T14:08:59.506Z,38.43
2018-11-07T14:11:27.986Z,38.51
2018-11-07T14:13:56.436Z,37.94
2018-11-07T14:16:24.920Z,38.02
2018-11-07T14:18:53.565Z,38.37
2018-11-07T14:21:21.961Z,38.14
2018-11-07T14:23:50.490Z,38.96
2018-11-07T14:26:19.794Z,38.23
2018-11-07T14:28:49.229Z,38.60
2018-11-07T14:31:17.725Z,39.24
2018-11-07T14:33:46.940Z,39.10
2018-11-07T14:36:15.397Z,39.39
2018-11-07T14:38:43.939Z,39.14
2018-11-07T14:41:12.318Z,38.60
2018-11-07T14:43:40.767Z,39.63
2018-11-07T14:46:09.264Z,39.88
2018-11-07T14:48:37.624Z,40.22
2018-11-07T14:51:06.714Z,40.16
2018-11-07T14:53:35.090Z,40.06
2018-11-07T14:56:03.798Z,40.60
2018-11-07T14:58:32.189Z,40.05
2018-11-07T15:01:00.585Z,40.58
2018-11-07T15:03:28.959Z,40.29
2018-11-07T15:05:57.390Z,40.98
2018-11-07T15:08:25.949Z,40.53
2018-11-07T15:10:54.166Z,41.43
2018-11-07T15:13:22.572Z,41.58
2018-11-07T15:15:50.964Z,41.48
2018-11-07T15:18:19.653Z,41.02
2018-11-07T15:20:48.778Z,41.21
2018-11-07T15:23:17.204Z,41.40
2018-11-07T15:25:49.618Z,42.24
2018-11-07T15:28:18.045Z,41.74
2018-11-07T15:30:46.483Z,42.47
2018-11-07T15:33:14.913Z,42.58
2018-11-07T15:35:43.405Z,42.11
2018-11-07T15:38:11.870Z,42.91
2018-11-07T15:40:40.335Z,43.02
2018-11-07T15:43:08.812Z,43.39
2018-11-07T15:45:37.280Z,42.79
2018-11-07T15:48:06.114Z,43.67
2018-11-07T15:50:40.350Z,42.88
2018-11-07T15:53:08.842Z,43.35
2018-11-07T15:55:37.502Z,42.95
2018-11-07T15:58:06.087Z,43.47
2018-11-07T16:00:34.433Z,43.74
2018-11-07T16:03:03.281Z,43.43
2018-11-07T16:05:31.697Z,44.00
2018-11-07T16:08:00.066Z,43.55
2018-11-07T16:10:29.172Z,43.74
2018-11-07T16:12:57.654Z,44.46
2018-11-07T16:15:26.348Z,44.79
2018-11-07T16:17:54.722Z,44.06
2018-11-07T16:20:23.147Z,44.22
2018-11-07T16:22:51.790Z,44.54
2018-11-07T16:25:20.443Z,44.74
2018-11-07T16:27:48.872Z,45.20
2018-11-07T16:30:18.737Z,44.70
2018-11-07T16:32:48.702Z,45.45
2018-11-07T16:35:17.305Z,44.99
2018-11-07T16:37:46.335Z,45.40
2018-11-07T16:40:16.128Z,45.40
2018-11-07T16:42:45.186Z,45.31
2018-11-07T16:45:15.030Z,46.05
2018-11-07T16:47:43.664Z,45.61
2018-11-07T16:50:13.368Z,46.18
2018-11-07T16:52:41.979Z,46.29
2018-11-07T16:55:10.376Z,46.52
2018-11-07T16:57:39.136Z,46.65
2018-11-07T17:00:11.971Z,46.79
2018-11-07T17:02:40.605Z,46.75
2018-11-07T17:05:10.183Z,46.52
2018-11-07T17:07:38.953Z,46.85
2018-11-07T17:10:08.392Z,47.39
2018-11-07T17:12:37.182Z,47.18
2018-11-07T17:15:06.119Z,47.44
2018-11-07T17:17:34.540Z,46.94
2018-11-07T17:20:03.283Z,47.45
2018-11-07T17:22:31.719Z,47.84
2018-11-07T17:25:00.148Z,47.62
2018-11-07T17:27:28.876Z,47.82
2018-11-07T17:29:58.644Z,47.61
2018-11-07T17:32:27.291Z,48.02
2018-11-07T17:34:56.663Z,48.06
2018-11-07T17:37:25.108Z,47.70
2018-11-07T17:39:53.926Z,48.35
2018-11-07T17:42:23.357Z,47.69
2018-11-07T17:44:52.414Z,48.03
2018-11-07T17:47:21.101Z,47.91
2018-11-07T17:49:49.569Z,47.90
2018-11-07T17:52:18.182Z,48.92
2018-11-07T17:54:46.619Z,48.43
2018-11-07T17:57:15.138Z,48.62
2018-11-07T17:59:43.946Z,48.49
2018-11-07T18:02:12.492Z,48.58
2018-11-07T18:04:41.097Z,48.77
2018-11-07T18:07:09.558Z,48.91
2018-11-07T18:09:38.014Z,49.41
2018-11-07T18:12:06.432Z,49.07
2018-11-07T18:14:35.628Z,49.07
2018-11-07T18:17:04.897Z,49.37
2018-11-07T18:19:33.818Z,49.40
2018-11-07T18:22:02.204Z,48.91
2018-11-07T18:24:30.825Z,49.29
2018-11-07T18:26:59.308Z,49.70
2018-11-07T18:29:27.719Z,49.17
2018-11-07T18:31:58.156Z,49.61
2018-11-07T18:34:28.268Z,49.29
2018-11-07T18:36:56.771Z,49.40
2018-11-07T18:39:25.461Z,49.59
2018-11-07T18:41:53.963Z,50.08
2018-11-07T18:44:22.483Z,49.72
2018-11-07T18:46:51.723Z,49.63
2018-11-07T18:49:21.172Z,50.46
2018-11-07T18:51:49.624Z,50.06
2018-11-07T18:54:18.041Z,50.60
2018-11-07T18:56:46.478Z,50.58
2018-11-07T18:59:15.103Z,50.43
2018-11-07T19:01:44.196Z,50.82
2018-11-07T19:04:12.897Z,50.55
2018-11-07T19:06:41.517Z,50.69
2018-11-07T19:09:09.949Z,50.51
2018-11-07T19:11:38.433Z,50.33
2018-11-07T19:14:07.252Z,50.39
2018-11-07T19:16:36.159Z,50.42
2018-11-07T19:19:05.435Z,50.62
2018-11-07T19:21:33.864Z,50.87
2018-11-07T19:24:02.735Z,50.90
2018-11-07T19:26:31.404Z,50.90
2018-11-07T19:29:00.299Z,50.92
2018-11-07T19:31:28.729Z,51.45
2018-11-07T19:33:57.119Z,51.29
2018-11-07T19:36:25.641Z,50.82
2018-11-07T19:38:54.130Z,50.88
2018-11-07T19:41:22.626Z,50.91
2018-11-07T19:43:51.110Z,51.01
2018-11-07T19:46:19.579Z,51.56
2018-11-07T19:48:48.051Z,51.49
2018-11-07T19:51:16.549Z,51.35
2018-11-07T19:53:45.159Z,51.34
2018-11-07T19:56:13.835Z,51.15
2018-11-07T19:58:42.334Z,51.48
2018-11-07T20:01:10.912Z,51.36
2018-11-07T20:03:39.370Z,51.90
2018-11-07T20:06:07.909Z,51.95
2018-11-07T20:08:36.461Z,51.54
2018-11-07T20:11:05.380Z,52.06
2018-11-07T20:13:33.875Z,52.17
2018-11-07T20:16:02.592Z,51.78
2018-11-07T20:18:31.185Z,52.04
2018-11-07T20:20:59.679Z,52.31
2018-11-07T20:23:28.338Z,52.41
2018-11-07T20:25:56.768Z,52.32
2018-11-07T20:28:25.289Z,52.38
2018-11-07T20:30:53.872Z,52.46
2018-11-07T20:33:22.244Z,52.82
2018-11-07T20:35:51.012Z,52.31
2018-11-07T20:38:19.462Z,52.64
2018-11-07T20:40:48.103Z,52.42
2018-11-07T20:43:16.671Z,52.90
2018-11-07T20:45:45.292Z,52.99
2018-11-07T20:48:14.045Z,52.85
2018-11-07T20:50:42.460Z,52.84
2018-11-07T20:53:10.916Z,53.09
2018-11-07T20:55:39.465Z,53.07
2018-11-07T20:58:07.839Z,53.23
2018-11-07T21:00:36.303Z,52.74
2018-11-07T21:03:05.185Z,52.92
2018-11-07T21:05:33.597Z,53.11
2018-11-07T21:08:01.978Z,53.39
2018-11-07T21:10:30.400Z,53.13
2018-11-07T21:12:58.848Z,52.90
2018-11-07T21:15:27.302Z,53.43
2018-11-07T21:17:55.677Z,53.06
2018-11-07T21:20:24.080Z,53.60
2018-11-07T21:22:53.537Z,53.35
2018-11-07T21:25:22.010Z,53.97
2018-11-07T21:27:50.982Z,53.67
2018-11-07T21:30:19.401Z,53.63
2018-11-07T21:32:47.824Z,53.40
2018-11-07T21:35:16.244Z,54.00
2018-11-07T21:37:44.629Z,53.88
2018-11-07T21:40:15.116Z,53.79
2018-11-07T21:42:44.208Z,54.20
2018-11-07T21:45:13.555Z,53.89
2018-11-07T21:47:42.380Z,53.67
2018-11-07T21:50:12.713Z,54.04
2018-11-07T21:52:41.313Z,54.06
2018-11-07T21:55:09.787Z,54.14
2018-11-07T21:57:38.449Z,54.58
2018-11-07T22:00:14.450Z,54.62
2018-11-07T22:02:43.188Z,54.15
2018-11-07T22:05:12.225Z,54.30
2018-11-07T22:07:40.923Z,54.63
2018-11-07T22:10:10.539Z,54.26
2018-11-07T22:12:39.005Z,54.43
2018-11-07T22:15:08.216Z,54.86
2018-11-07T22:17:37.149Z,54.77
2018-11-07T22:20:13.152Z,54.35
2018-11-07T22:22:41.867Z,54.98
2018-11-07T22:25:10.313Z,54.93
2018-11-07T22:27:38.733Z,54.93
2018-11-07T22:30:09.709Z,54.75
2018-11-07T22:32:38.611Z,55.07
2018-11-07T22:35:08.904Z,55.04
2018-11-07T22:37:37.321Z,55.38
2018-11-07T22:40:07.951Z,55.34
2018-11-07T22:42:36.679Z,54.99
2018-11-07T22:45:05.804Z,55.24
2018-11-07T22:47:34.366Z,55.35
2018-11-07T22:50:02.830Z,54.66
2018-11-07T22:52:38.273Z,54.87
2018-11-07T22:55:07.474Z,55.58
2018-11-07T22:57:35.954Z,54.88
2018-11-07T23:00:13.754Z,55.69
2018-11-07T23:02:42.225Z,55.73
2018-11-07T23:05:10.630Z,55.44
2018-11-07T23:07:39.119Z,55.76
2018-11-07T23:10:07.585Z,55.47
2018-11-07T23:12:36.029Z,55.07
2018-11-07T23:15:04.859Z,55.53
2018-11-07T23:17:33.271Z,55.11
2018-11-07T23:20:01.693Z,55.31
2018-11-07T23:22:30.083Z,55.67
2018-11-07T23:24:58.471Z,55.65
2018-11-07T23:27:26.874Z,55.56
2018-11-07T23:29:55.237Z,55.24
2018-11-07T23:32:23.683Z,55.42
2018-11-07T23:34:52.435Z,55.77
2018-11-07T23:37:20.832Z,55.48
2018-11-07T23:39:49.206Z,55.99
2018-11-07T23:42:17.634Z,55.57
2018-11-07T23:44:46.075Z,55.36
2018-11-07T23:47:14.473Z,55.92
2018-11-07T23:49:42.941Z,55.89
2018-11-07T23:52:15.942Z,55.74
2018-11-07T23:54:44.423Z,55.72
2018-11-07T23:57:12.848Z,56.03
2018-11-07T23:59:41.222Z,56.52
